createdAt,value
2019-02-14T00:05:05.234Z,17.50
2019-02-14T00:07:36.134Z,15.97
2019-02-14T00:10:45.492Z,14.30
2019-02-14T00:13:14.852Z,17.97
2019-02-14T00:15:44.082Z,16.40
2019-02-14T00:18:32.658Z,13.60
2019-02-14T00:21:21.232Z,16.33
2019-02-14T00:23:50.566Z,15.27
2019-02-14T00:26:39.122Z,19.00
2019-02-14T00:29:27.825Z,20.43
2019-02-14T00:32:16.416Z,17.37
2019-02-14T00:35:05.483Z,17.03
2019-02-14T00:37:34.723Z,18.10
2019-02-14T00:40:23.367Z,16.50
2019-02-14T00:43:11.932Z,17.03
2019-02-14T00:46:00.507Z,14.60
2019-02-14T00:48:49.097Z,13.53
2019-02-14T00:51:18.336Z,14.17
2019-02-14T00:54:06.916Z,14.40
2019-02-14T00:56:36.214Z,15.17
2019-02-14T00:59:05.463Z,16.03
2019-02-14T01:05:03.030Z,16.43
2019-02-14T01:07:32.253Z,14.63
2019-02-14T01:10:20.841Z,18.20
2019-02-14T01:12:50.084Z,14.27
2019-02-14T01:17:58.729Z,15.60
2019-02-14T01:20:27.995Z,16.77
2019-02-14T01:22:57.243Z,17.23
2019-02-14T01:25:45.826Z,14.93
2019-02-14T01:31:24.092Z,14.70
2019-02-14T01:33:53.628Z,14.83
2019-02-14T01:36:22.867Z,14.37
2019-02-14T01:39:11.442Z,16.30
2019-02-14T01:41:40.677Z,18.77
2019-02-14T01:44:09.951Z,17.87
2019-02-14T01:46:39.188Z,15.90
2019-02-14T01:49:08.435Z,17.77
2019-02-14T01:51:37.682Z,15.73
2019-02-14T01:54:06.970Z,13.73
2019-02-14T01:56:36.225Z,12.70
2019-02-14T01:59:24.815Z,13.50
2019-02-14T02:01:54.042Z,16.13
2019-02-14T02:04:42.613Z,13.00
2019-02-14T02:07:11.862Z,13.60
2019-02-14T02:10:00.540Z,17.97
2019-02-14T02:12:49.229Z,16.00
2019-02-14T02:15:37.797Z,14.17
2019-02-14T02:18:07.042Z,14.60
2019-02-14T02:20:36.270Z,12.13
2019-02-14T02:23:05.545Z,12.87
2019-02-14T02:25:34.762Z,11.93
2019-02-14T02:28:04.008Z,14.80
2019-02-14T02:30:52.580Z,14.60
2019-02-14T02:33:21.848Z,13.07
2019-02-14T02:36:10.454Z,13.67
2019-02-14T02:38:39.714Z,12.70
2019-02-14T02:41:08.958Z,13.60
2019-02-14T02:43:57.566Z,11.83
2019-02-14T02:46:46.159Z,13.90
2019-02-14T02:49:15.407Z,16.73
2019-02-14T02:52:03.979Z,12.43
2019-02-14T02:54:33.243Z,18.50
2019-02-14T02:57:02.477Z,10.73
2019-02-14T02:59:51.076Z,13.27
2019-02-14T03:02:39.669Z,12.80
2019-02-14T03:05:28.259Z,13.63
2019-02-14T03:08:16.829Z,11.27
2019-02-14T03:10:46.092Z,12.27
2019-02-14T03:13:15.330Z,10.40
2019-02-14T03:16:03.987Z,11.53
2019-02-14T03:18:52.651Z,11.00
2019-02-14T03:21:41.226Z,12.70
2019-02-14T03:24:10.480Z,13.17
2019-02-14T03:26:59.058Z,11.40
2019-02-14T03:29:28.331Z,15.13
2019-02-14T03:31:57.575Z,12.50
2019-02-14T03:34:26.812Z,10.17
2019-02-14T03:36:56.051Z,13.77
2019-02-14T03:39:44.654Z,13.53
2019-02-14T03:42:13.882Z,13.20
2019-02-14T03:44:43.138Z,11.20
2019-02-14T03:47:12.353Z,12.63
2019-02-14T03:49:41.608Z,13.87
2019-02-14T03:52:10.849Z,11.73
2019-02-14T03:54:40.091Z,11.53
2019-02-14T03:57:28.649Z,11.47
2019-02-14T04:00:17.707Z,10.83
2019-02-14T04:03:06.258Z,13.17
2019-02-14T04:05:54.908Z,10.97
2019-02-14T04:08:24.130Z,10.27
2019-02-14T04:10:53.375Z,12.17
2019-02-14T04:13:22.619Z,9.43
2019-02-14T04:16:11.204Z,12.93
2019-02-14T04:18:40.449Z,10.80
2019-02-14T04:21:09.682Z,11.90
2019-02-14T04:23:58.285Z,12.23
2019-02-14T04:26:27.520Z,13.17
2019-02-14T04:29:16.117Z,11.93
2019-02-14T04:31:45.343Z,11.90
2019-02-14T04:34:33.946Z,12.07
2019-02-14T04:37:03.189Z,13.67
2019-02-14T04:39:32.455Z,12.70
2019-02-14T04:42:01.727Z,12.07
2019-02-14T04:45:10.981Z,15.10
2019-02-14T04:47:40.228Z,12.93
2019-02-14T04:50:28.820Z,12.53
2019-02-14T04:56:30.174Z,12.87
2019-02-14T04:59:18.749Z,12.87
2019-02-14T05:02:07.376Z,10.47
2019-02-14T05:04:55.971Z,12.00
2019-02-14T05:07:25.206Z,13.60
2019-02-14T05:10:13.783Z,11.50
2019-02-14T05:13:02.353Z,12.03
2019-02-14T05:15:50.935Z,10.20
2019-02-14T05:18:32.370Z,12.17
2019-02-14T05:21:10.204Z,13.33
2019-02-14T05:23:39.451Z,13.10
2019-02-14T05:26:28.085Z,11.57
2019-02-14T05:28:57.302Z,13.87
2019-02-14T05:31:45.862Z,15.10
2019-02-14T05:34:34.436Z,10.87
2019-02-14T05:37:03.675Z,12.60
2019-02-14T05:39:32.925Z,12.23
2019-02-14T05:42:21.488Z,14.80
2019-02-14T05:45:10.950Z,11.00
2019-02-14T05:47:59.616Z,15.93
2019-02-14T05:50:48.202Z,12.67
2019-02-14T05:53:17.456Z,10.20
2019-02-14T05:56:06.050Z,12.17
2019-02-14T05:58:35.288Z,11.30
2019-02-14T06:04:52.197Z,9.87
2019-02-14T06:07:21.448Z,18.43
2019-02-14T06:10:10.510Z,12.43
2019-02-14T06:12:59.081Z,18.33
2019-02-14T06:15:28.362Z,11.27
2019-02-14T06:18:16.943Z,11.97
2019-02-14T06:20:46.188Z,13.63
2019-02-14T06:23:15.472Z,15.10
2019-02-14T06:25:44.735Z,14.17
2019-02-14T06:28:33.293Z,14.47
2019-02-14T06:31:02.543Z,14.97
2019-02-14T06:33:51.125Z,12.33
2019-02-14T06:36:39.693Z,13.60
2019-02-14T06:39:21.091Z,14.13
2019-02-14T06:45:27.857Z,17.60
2019-02-14T06:48:09.266Z,15.17
2019-02-14T06:50:50.619Z,19.00
2019-02-14T06:53:32.322Z,14.47
2019-02-14T06:56:13.927Z,14.87
2019-02-14T06:58:43.162Z,14.57
2019-02-14T07:01:12.414Z,16.47
2019-02-14T07:03:41.668Z,15.37
2019-02-14T07:06:10.916Z,17.87
2019-02-14T07:08:40.153Z,17.40
2019-02-14T07:11:09.411Z,14.30
2019-02-14T07:13:38.666Z,15.93
2019-02-14T07:19:42.132Z,14.87
2019-02-14T07:22:30.715Z,15.90
2019-02-14T07:24:59.957Z,16.63
2019-02-14T07:27:48.540Z,13.40
2019-02-14T07:30:37.106Z,13.33
2019-02-14T07:33:25.722Z,17.83
2019-02-14T07:36:14.323Z,14.83
2019-02-14T07:38:43.578Z,15.63
2019-02-14T07:41:32.153Z,18.47
2019-02-14T07:44:20.777Z,15.87
2019-02-14T07:47:09.345Z,15.07
2019-02-14T07:49:38.600Z,15.93
2019-02-14T07:52:07.841Z,16.40
2019-02-14T07:54:56.517Z,15.23
2019-02-14T07:57:45.082Z,16.93
2019-02-14T08:00:54.366Z,13.87
2019-02-14T08:03:23.613Z,13.00
2019-02-14T08:09:19.947Z,16.03
2019-02-14T08:12:08.493Z,14.03
2019-02-14T08:14:57.136Z,16.53
2019-02-14T08:17:45.712Z,11.47
2019-02-14T08:20:34.277Z,14.00
2019-02-14T08:23:22.884Z,19.20
2019-02-14T08:26:11.493Z,17.77
2019-02-14T08:29:00.101Z,22.43
2019-02-14T08:31:48.694Z,18.90
2019-02-14T08:34:17.924Z,19.03
2019-02-14T08:36:47.163Z,12.17
2019-02-14T08:39:28.640Z,10.27
2019-02-14T08:42:10.387Z,11.37
2019-02-14T08:44:51.475Z,15.67
2019-02-14T08:47:20.703Z,10.97
2019-02-14T08:50:09.959Z,11.93
2019-02-14T08:52:58.574Z,11.03
2019-02-14T08:55:27.827Z,12.80
2019-02-14T08:58:16.398Z,13.77
2019-02-14T09:01:05.046Z,9.20
2019-02-14T09:03:53.619Z,8.10
2019-02-14T09:06:42.217Z,8.47
2019-02-14T09:09:11.483Z,14.63
2019-02-14T09:11:40.707Z,16.87
2019-02-14T09:14:09.946Z,11.67
2019-02-14T09:16:58.532Z,11.67
2019-02-14T09:19:27.781Z,10.03
2019-02-14T09:22:16.352Z,12.60
2019-02-14T09:25:05.611Z,16.37
2019-02-14T09:27:54.213Z,11.87
2019-02-14T09:33:21.547Z,9.50
2019-02-14T09:36:10.116Z,12.93
2019-02-14T09:38:51.199Z,14.27
2019-02-14T09:41:20.424Z,15.70
2019-02-14T09:43:49.654Z,14.53
2019-02-14T09:46:38.251Z,12.80
2019-02-14T09:49:07.508Z,12.87
2019-02-14T09:51:56.085Z,12.20
2019-02-14T09:54:44.649Z,6.27
2019-02-14T10:00:49.359Z,4.47
2019-02-14T10:03:37.970Z,7.27
2019-02-14T10:06:07.199Z,5.67
2019-02-14T10:08:37.911Z,5.63
2019-02-14T10:11:26.549Z,11.77
2019-02-14T10:13:55.811Z,7.57
2019-02-14T10:16:44.421Z,6.27
2019-02-14T10:19:13.655Z,9.90
2019-02-14T10:22:02.274Z,7.10
2019-02-14T10:24:31.525Z,6.37
2019-02-14T10:27:20.160Z,4.97
2019-02-14T10:30:28.107Z,8.60
2019-02-14T10:33:16.752Z,10.40
2019-02-14T10:36:05.365Z,5.20
2019-02-14T10:38:34.611Z,17.40
2019-02-14T10:41:03.849Z,6.73
2019-02-14T10:43:33.125Z,4.83
2019-02-14T10:46:02.342Z,3.97
2019-02-14T10:48:31.637Z,5.27
2019-02-14T10:51:00.925Z,9.20
2019-02-14T10:54:08.619Z,13.03
2019-02-14T10:56:57.187Z,8.47
2019-02-14T10:59:26.439Z,6.90
2019-02-14T11:02:15.021Z,6.47
2019-02-14T11:05:03.904Z,6.13
2019-02-14T11:07:52.424Z,4.87
2019-02-14T11:10:21.687Z,8.60
2019-02-14T11:13:10.260Z,7.63
2019-02-14T11:15:58.835Z,4.37
2019-02-14T11:18:47.404Z,7.53
2019-02-14T11:21:36.090Z,6.47
2019-02-14T11:27:20.213Z,4.60
2019-02-14T11:29:49.456Z,6.00
2019-02-14T11:32:38.034Z,7.87
2019-02-14T11:35:26.703Z,6.80
2019-02-14T11:37:55.939Z,9.10
2019-02-14T11:40:37.816Z,6.97
2019-02-14T11:43:07.066Z,5.93
2019-02-14T11:45:55.659Z,8.60
2019-02-14T11:48:44.243Z,7.10
2019-02-14T11:51:13.486Z,6.07
2019-02-14T11:54:02.079Z,5.03
2019-02-14T11:56:50.705Z,7.77
2019-02-14T11:59:19.956Z,6.73
2019-02-14T12:01:55.190Z,7.23
2019-02-14T12:04:58.641Z,8.13
2019-02-14T12:07:47.241Z,6.03
2019-02-14T12:10:16.511Z,9.30
2019-02-14T12:13:05.172Z,6.30
2019-02-14T12:15:53.757Z,6.83
2019-02-14T12:18:24.137Z,8.17
2019-02-14T12:21:13.037Z,6.90
2019-02-14T12:23:42.336Z,16.27
2019-02-14T12:26:30.928Z,9.30
2019-02-14T12:29:19.564Z,6.03
2019-02-14T12:31:48.824Z,9.77
2019-02-14T12:34:18.059Z,8.63
2019-02-14T12:36:47.317Z,6.93
2019-02-14T12:39:16.573Z,7.57
2019-02-14T12:41:45.826Z,6.30
2019-02-14T12:44:34.430Z,4.47
2019-02-14T12:47:23.021Z,5.93
2019-02-14T12:52:59.906Z,10.30
2019-02-14T12:55:48.491Z,17.60
2019-02-14T12:58:17.739Z,7.27
2019-02-14T13:01:06.336Z,8.33
2019-02-14T13:03:54.968Z,6.87
2019-02-14T13:06:43.561Z,6.47
2019-02-14T13:09:19.634Z,4.07
2019-02-14T13:12:22.204Z,7.83
2019-02-14T13:14:51.431Z,6.77
2019-02-14T13:20:53.219Z,6.80
2019-02-14T13:23:41.845Z,8.27
2019-02-14T13:26:11.096Z,6.47
2019-02-14T13:28:59.702Z,7.23
2019-02-14T13:31:48.267Z,5.97
2019-02-14T13:34:36.873Z,3.77
2019-02-14T13:37:06.176Z,4.77
2019-02-14T13:39:47.473Z,15.37
2019-02-14T13:42:28.827Z,15.03
2019-02-14T13:45:10.524Z,5.40
2019-02-14T13:47:39.756Z,4.80
2019-02-14T13:50:49.078Z,3.47
2019-02-14T13:53:37.722Z,7.20
2019-02-14T13:56:26.361Z,3.30
2019-02-14T13:59:14.997Z,6.93
2019-02-14T14:04:51.827Z,2.57
2019-02-14T14:07:21.097Z,2.93
2019-02-14T14:10:09.741Z,4.40
2019-02-14T14:12:58.324Z,3.47
2019-02-14T14:15:46.933Z,2.73
2019-02-14T14:18:16.189Z,2.00
2019-02-14T14:21:04.776Z,4.47
2019-02-14T14:23:53.352Z,2.37
2019-02-14T14:26:41.961Z,4.13
2019-02-14T14:29:11.179Z,3.50
2019-02-14T14:31:40.430Z,5.03
2019-02-14T14:34:29.026Z,4.93
2019-02-14T14:37:17.603Z,2.80
2019-02-14T14:39:58.767Z,3.37
2019-02-14T14:42:41.745Z,4.33
2019-02-14T14:51:23.795Z,3.80
2019-02-14T14:54:12.398Z,1.70
2019-02-14T14:57:01.051Z,3.20
2019-02-14T14:59:49.706Z,5.77
2019-02-14T15:02:38.359Z,6.13
2019-02-14T15:05:26.960Z,2.37
2019-02-14T15:07:56.216Z,3.03
2019-02-14T15:10:44.791Z,5.13
2019-02-14T15:13:14.033Z,5.70
2019-02-14T15:15:43.272Z,9.30
2019-02-14T15:18:31.882Z,2.10
2019-02-14T15:21:20.466Z,8.40
2019-02-14T15:24:09.035Z,3.93
2019-02-14T15:26:57.614Z,8.90
2019-02-14T15:29:46.222Z,4.70
2019-02-14T15:32:34.816Z,5.73
2019-02-14T15:35:23.431Z,4.80
2019-02-14T15:38:12.052Z,5.70
2019-02-14T15:40:53.765Z,6.03
2019-02-14T15:43:23.018Z,3.67
2019-02-14T15:45:52.256Z,13.53
2019-02-14T15:48:40.861Z,15.13
2019-02-14T15:51:10.109Z,14.97
2019-02-14T15:53:41.353Z,15.47
2019-02-14T15:56:48.787Z,11.07
2019-02-14T15:59:37.380Z,22.43
2019-02-14T16:02:08.478Z,10.07
2019-02-14T16:05:16.885Z,20.43
2019-02-14T16:08:06.068Z,12.57
2019-02-14T16:10:55.910Z,17.17
2019-02-14T16:14:04.088Z,14.37
2019-02-14T16:16:33.331Z,18.13
2019-02-14T16:19:21.927Z,20.63
2019-02-14T16:22:10.518Z,20.17
2019-02-14T16:24:59.108Z,13.80
2019-02-14T16:27:48.326Z,10.43
2019-02-14T16:30:37.761Z,19.80
2019-02-14T16:33:26.343Z,14.20
2019-02-14T16:35:55.651Z,16.47
2019-02-14T16:38:24.928Z,10.77
2019-02-14T16:40:54.187Z,21.00
2019-02-14T16:43:42.758Z,16.93
2019-02-14T16:46:31.365Z,15.60
2019-02-14T16:49:19.925Z,9.53
2019-02-14T16:54:47.471Z,12.33
2019-02-14T16:57:36.099Z,21.33
2019-02-14T17:00:24.683Z,14.27
2019-02-14T17:02:53.951Z,9.13
2019-02-14T17:05:42.553Z,20.43
2019-02-14T17:08:11.828Z,21.97
2019-02-14T17:11:00.463Z,26.30
2019-02-14T17:13:49.067Z,19.30
2019-02-14T17:16:18.312Z,19.37
2019-02-14T17:19:06.911Z,13.33
2019-02-14T17:21:36.266Z,15.30
2019-02-14T17:24:24.838Z,21.10
2019-02-14T17:27:13.466Z,15.20
2019-02-14T17:30:02.033Z,15.27
2019-02-14T17:32:31.273Z,11.93
2019-02-14T17:35:00.513Z,11.23
2019-02-14T17:37:49.182Z,10.90
2019-02-14T17:40:30.682Z,20.23
2019-02-14T17:43:12.505Z,17.00
2019-02-14T17:45:41.753Z,19.17
2019-02-14T17:48:30.344Z,20.47
2019-02-14T17:50:59.591Z,24.53
2019-02-14T17:53:48.205Z,18.83
2019-02-14T17:56:17.462Z,12.97
2019-02-14T17:59:06.035Z,18.87
2019-02-14T18:05:02.832Z,11.40
2019-02-14T18:07:51.399Z,12.37
2019-02-14T18:10:39.974Z,21.67
2019-02-14T18:13:28.575Z,14.67
2019-02-14T18:15:57.852Z,19.37
2019-02-14T18:18:46.479Z,18.00
2019-02-14T18:21:35.108Z,12.77
2019-02-14T18:24:23.695Z,21.63
2019-02-14T18:27:12.339Z,18.80
2019-02-14T18:30:00.399Z,14.70
2019-02-14T18:32:48.973Z,10.57
2019-02-14T18:38:50.566Z,17.13
2019-02-14T18:41:39.127Z,16.33
2019-02-14T18:44:08.393Z,14.63
2019-02-14T18:46:37.689Z,12.87
2019-02-14T18:49:06.876Z,16.60
2019-02-14T18:51:55.445Z,18.03
2019-02-14T18:54:24.698Z,17.77
2019-02-14T18:57:13.263Z,18.70
2019-02-14T19:00:01.841Z,19.13
2019-02-14T19:02:50.448Z,14.67
2019-02-14T19:05:39.056Z,20.63
2019-02-14T19:08:27.641Z,19.63
2019-02-14T19:10:56.902Z,24.93
2019-02-14T19:13:45.500Z,21.57
2019-02-14T19:16:14.749Z,20.10
2019-02-14T19:19:03.392Z,22.43
2019-02-14T19:21:52.004Z,17.77
2019-02-14T19:24:21.248Z,20.37
2019-02-14T19:27:09.837Z,17.53
2019-02-14T19:29:58.457Z,17.97
2019-02-14T19:32:47.099Z,15.83
2019-02-14T19:35:35.704Z,13.13
2019-02-14T19:38:24.615Z,17.63
2019-02-14T19:41:06.251Z,14.97
2019-02-14T19:43:35.496Z,12.23
2019-02-14T19:46:24.101Z,13.07
2019-02-14T19:49:12.685Z,15.30
2019-02-14T19:52:01.271Z,11.40
2019-02-14T19:54:49.869Z,14.37
2019-02-14T19:57:38.484Z,14.70
2019-02-14T20:00:27.040Z,14.57
2019-02-14T20:03:15.632Z,13.40
2019-02-14T20:06:04.199Z,9.63
2019-02-14T20:08:33.453Z,14.83
2019-02-14T20:11:02.695Z,12.20
2019-02-14T20:13:51.284Z,15.57
2019-02-14T20:16:20.515Z,11.73
2019-02-14T20:19:09.133Z,14.33
2019-02-14T20:21:57.724Z,12.57
2019-02-14T20:24:46.329Z,14.57
2019-02-14T20:27:34.914Z,18.00
2019-02-14T20:30:44.171Z,11.93
2019-02-14T20:33:13.467Z,11.53
2019-02-14T20:35:42.693Z,14.00
2019-02-14T20:38:31.282Z,11.57
2019-02-14T20:41:12.775Z,16.43
2019-02-14T20:43:53.896Z,14.97
2019-02-14T20:46:23.137Z,17.47
2019-02-14T20:49:11.761Z,13.13
2019-02-14T20:51:41.025Z,14.30
2019-02-14T20:54:29.604Z,12.30
2019-02-14T20:56:58.856Z,12.07
2019-02-14T20:59:47.443Z,18.27
2019-02-14T21:02:18.343Z,20.90
2019-02-14T21:05:06.931Z,19.50
2019-02-14T21:07:55.620Z,22.50
2019-02-14T21:10:24.846Z,21.13
2019-02-14T21:13:13.529Z,16.30
2019-02-14T21:15:42.768Z,17.87
2019-02-14T21:18:12.004Z,15.10
2019-02-14T21:21:00.641Z,14.63
2019-02-14T21:23:49.209Z,16.77
2019-02-14T21:26:37.799Z,15.80
2019-02-14T21:29:07.030Z,13.47
2019-02-14T21:31:36.260Z,12.43
2019-02-14T21:34:24.842Z,14.93
2019-02-14T21:36:54.068Z,17.00
2019-02-14T21:39:23.327Z,11.47
2019-02-14T21:42:20.714Z,12.63
2019-02-14T21:45:21.320Z,10.57
2019-02-14T21:48:09.893Z,10.30
2019-02-14T21:50:58.472Z,11.53
2019-02-14T21:53:47.119Z,10.80
2019-02-14T21:56:16.374Z,10.00
2019-02-14T21:59:04.976Z,9.33
2019-02-14T22:01:34.221Z,9.57
2019-02-14T22:07:34.729Z,9.00
2019-02-14T22:10:13.874Z,9.33
2019-02-14T22:12:44.189Z,10.63
2019-02-14T22:15:52.575Z,10.10
2019-02-14T22:18:40.983Z,5.67
2019-02-14T22:21:29.560Z,10.73
2019-02-14T22:24:18.145Z,8.60
2019-02-14T22:26:47.402Z,9.30
2019-02-14T22:29:35.994Z,9.00
2019-02-14T22:32:24.595Z,10.20
2019-02-14T22:35:13.243Z,10.93
2019-02-14T22:38:01.819Z,7.77
2019-02-14T22:40:43.486Z,9.07
2019-02-14T22:43:24.778Z,10.97
2019-02-14T22:46:06.299Z,6.40
2019-02-14T22:48:35.538Z,6.80
2019-02-14T22:51:24.117Z,8.00
2019-02-14T22:54:12.723Z,7.83
2019-02-14T22:56:41.966Z,8.90
2019-02-14T22:59:30.556Z,7.23
2019-02-14T23:01:59.780Z,5.47
2019-02-14T23:04:48.374Z,5.63
2019-02-14T23:07:37.027Z,6.90
2019-02-14T23:10:25.604Z,8.53
2019-02-14T23:12:56.091Z,6.43
2019-02-14T23:16:04.487Z,5.93
2019-02-14T23:18:53.086Z,5.43
2019-02-14T23:21:41.630Z,4.50
2019-02-14T23:24:30.221Z,5.47
2019-02-14T23:26:59.447Z,5.13
2019-02-14T23:29:28.756Z,6.77
2019-02-14T23:32:17.310Z,7.00
2019-02-14T23:35:05.984Z,4.63
2019-02-14T23:37:54.540Z,7.70
2019-02-14T23:40:35.902Z,5.73
2019-02-14T23:43:07.129Z,6.17
2019-02-14T23:45:55.284Z,3.90
2019-02-14T23:48:24.523Z,5.07
2019-02-14T23:51:13.111Z,6.10
2019-02-14T23:53:42.346Z,4.50
2019-02-14T23:56:30.915Z,6.10
2019-02-14T23:59:19.573Z,4.43
